sensor_id;sensor_type;location;lat;lon;timestamp;P1;durP1;ratioP1;P2;durP2;ratioP2
57217;SDS011;43078;52.972;6.482;2023-04-29T00:01:51;30.30;;;22.70;;
57217;SDS011;43078;52.972;6.482;2023-04-29T00:04:16;29.33;;;23.25;;
57217;SDS011;43078;52.972;6.482;2023-04-29T00:06:42;33.60;;;23.17;;
57217;SDS011;43078;52.972;6.482;2023-04-29T00:09:07;35.75;;;22.55;;
57217;SDS011;43078;52.972;6.482;2023-04-29T00:11:33;33.45;;;22.77;;
57217;SDS011;43078;52.972;6.482;2023-04-29T00:13:59;32.40;;;22.05;;
57217;SDS011;43078;52.972;6.482;2023-04-29T00:16:25;35.90;;;22.33;;
57217;SDS011;43078;52.972;6.482;2023-04-29T00:18:50;36.13;;;22.25;;
57217;SDS011;43078;52.972;6.482;2023-04-29T00:21:16;35.17;;;23.17;;
57217;SDS011;43078;52.972;6.482;2023-04-29T00:23:42;30.67;;;23.10;;
57217;SDS011;43078;52.972;6.482;2023-04-29T00:26:07;34.33;;;23.02;;
57217;SDS011;43078;52.972;6.482;2023-04-29T00:28:33;33.45;;;22.30;;
57217;SDS011;43078;52.972;6.482;2023-04-29T00:30:58;29.55;;;21.55;;
57217;SDS011;43078;52.972;6.482;2023-04-29T00:33:24;33.05;;;23.13;;
57217;SDS011;43078;52.972;6.482;2023-04-29T00:35:50;29.17;;;22.27;;
57217;SDS011;43078;52.972;6.482;2023-04-29T00:38:16;33.08;;;22.08;;
57217;SDS011;43078;52.972;6.482;2023-04-29T00:40:41;33.47;;;23.23;;
57217;SDS011;43078;52.972;6.482;2023-04-29T00:43:07;32.13;;;22.90;;
57217;SDS011;43078;52.972;6.482;2023-04-29T00:45:33;34.08;;;23.65;;
57217;SDS011;43078;52.972;6.482;2023-04-29T00:47:59;36.92;;;23.23;;
57217;SDS011;43078;52.972;6.482;2023-04-29T00:50:24;39.05;;;24.48;;
57217;SDS011;43078;52.972;6.482;2023-04-29T00:52:50;35.45;;;23.48;;
57217;SDS011;43078;52.972;6.482;2023-04-29T00:55:16;39.03;;;25.38;;
57217;SDS011;43078;52.972;6.482;2023-04-29T00:57:42;33.63;;;23.77;;
57217;SDS011;43078;52.972;6.482;2023-04-29T01:00:12;36.25;;;23.77;;
57217;SDS011;43078;52.972;6.482;2023-04-29T01:02:39;34.70;;;23.98;;
57217;SDS011;43078;52.972;6.482;2023-04-29T01:05:05;39.75;;;24.88;;
57217;SDS011;43078;52.972;6.482;2023-04-29T01:07:33;33.83;;;23.45;;
57217;SDS011;43078;52.972;6.482;2023-04-29T01:10:26;35.00;;;23.92;;
57217;SDS011;43078;52.972;6.482;2023-04-29T01:12:57;28.15;;;21.65;;
57217;SDS011;43078;52.972;6.482;2023-04-29T01:15:48;33.22;;;23.45;;
57217;SDS011;43078;52.972;6.482;2023-04-29T01:18:24;38.55;;;23.67;;
57217;SDS011;43078;52.972;6.482;2023-04-29T01:20:52;34.97;;;22.05;;
57217;SDS011;43078;52.972;6.482;2023-04-29T01:23:18;29.45;;;21.75;;
57217;SDS011;43078;52.972;6.482;2023-04-29T01:25:44;31.88;;;22.73;;
57217;SDS011;43078;52.972;6.482;2023-04-29T01:28:17;33.10;;;22.00;;
57217;SDS011;43078;52.972;6.482;2023-04-29T01:30:55;34.15;;;22.98;;
57217;SDS011;43078;52.972;6.482;2023-04-29T01:33:39;30.92;;;20.77;;
57217;SDS011;43078;52.972;6.482;2023-04-29T01:39:32;33.40;;;21.35;;
57217;SDS011;43078;52.972;6.482;2023-04-29T01:44:35;29.38;;;20.73;;
57217;SDS011;43078;52.972;6.482;2023-04-29T01:47:04;30.17;;;20.20;;
57217;SDS011;43078;52.972;6.482;2023-04-29T01:49:30;27.92;;;19.98;;
57217;SDS011;43078;52.972;6.482;2023-04-29T01:51:59;28.65;;;19.20;;
57217;SDS011;43078;52.972;6.482;2023-04-29T01:54:25;27.65;;;18.75;;
57217;SDS011;43078;52.972;6.482;2023-04-29T01:56:51;29.85;;;18.40;;
57217;SDS011;43078;52.972;6.482;2023-04-29T01:59:17;29.48;;;18.52;;
57217;SDS011;43078;52.972;6.482;2023-04-29T02:01:42;26.10;;;18.70;;
57217;SDS011;43078;52.972;6.482;2023-04-29T02:04:08;25.95;;;18.38;;
57217;SDS011;43078;52.972;6.482;2023-04-29T02:06:33;28.90;;;19.33;;
57217;SDS011;43078;52.972;6.482;2023-04-29T02:08:59;31.90;;;19.13;;
57217;SDS011;43078;52.972;6.482;2023-04-29T02:11:24;24.20;;;17.60;;
57217;SDS011;43078;52.972;6.482;2023-04-29T02:13:51;29.48;;;18.10;;
57217;SDS011;43078;52.972;6.482;2023-04-29T02:16:16;29.63;;;18.42;;
57217;SDS011;43078;52.972;6.482;2023-04-29T02:18:42;30.42;;;18.98;;
57217;SDS011;43078;52.972;6.482;2023-04-29T02:21:08;26.25;;;17.98;;
57217;SDS011;43078;52.972;6.482;2023-04-29T02:23:34;28.42;;;18.75;;
57217;SDS011;43078;52.972;6.482;2023-04-29T02:26:00;29.35;;;18.75;;
57217;SDS011;43078;52.972;6.482;2023-04-29T02:28:26;27.08;;;17.85;;
57217;SDS011;43078;52.972;6.482;2023-04-29T02:30:51;23.98;;;17.92;;
57217;SDS011;43078;52.972;6.482;2023-04-29T02:33:17;29.35;;;18.92;;
57217;SDS011;43078;52.972;6.482;2023-04-29T02:35:43;25.77;;;18.40;;
57217;SDS011;43078;52.972;6.482;2023-04-29T02:38:09;28.77;;;18.35;;
57217;SDS011;43078;52.972;6.482;2023-04-29T02:40:42;25.48;;;18.13;;
57217;SDS011;43078;52.972;6.482;2023-04-29T02:43:08;29.95;;;18.92;;
57217;SDS011;43078;52.972;6.482;2023-04-29T02:45:34;26.67;;;17.85;;
57217;SDS011;43078;52.972;6.482;2023-04-29T02:48:00;25.48;;;17.77;;
57217;SDS011;43078;52.972;6.482;2023-04-29T02:50:26;29.30;;;18.38;;
57217;SDS011;43078;52.972;6.482;2023-04-29T02:52:52;24.90;;;17.83;;
57217;SDS011;43078;52.972;6.482;2023-04-29T02:55:18;26.48;;;16.67;;
57217;SDS011;43078;52.972;6.482;2023-04-29T02:57:44;27.27;;;16.63;;
57217;SDS011;43078;52.972;6.482;2023-04-29T03:00:09;23.42;;;17.02;;
57217;SDS011;43078;52.972;6.482;2023-04-29T03:02:35;27.60;;;16.65;;
57217;SDS011;43078;52.972;6.482;2023-04-29T03:05:01;25.50;;;16.98;;
57217;SDS011;43078;52.972;6.482;2023-04-29T03:07:28;28.88;;;17.45;;
57217;SDS011;43078;52.972;6.482;2023-04-29T03:09:54;22.98;;;17.15;;
57217;SDS011;43078;52.972;6.482;2023-04-29T03:12:20;21.20;;;16.15;;
57217;SDS011;43078;52.972;6.482;2023-04-29T03:14:46;22.80;;;16.63;;
57217;SDS011;43078;52.972;6.482;2023-04-29T03:17:12;23.10;;;16.48;;
57217;SDS011;43078;52.972;6.482;2023-04-29T03:19:38;22.48;;;16.38;;
57217;SDS011;43078;52.972;6.482;2023-04-29T03:22:03;26.10;;;16.40;;
57217;SDS011;43078;52.972;6.482;2023-04-29T03:24:29;26.48;;;16.92;;
57217;SDS011;43078;52.972;6.482;2023-04-29T03:26:55;25.75;;;16.25;;
57217;SDS011;43078;52.972;6.482;2023-04-29T03:29:20;23.90;;;16.45;;
57217;SDS011;43078;52.972;6.482;2023-04-29T03:31:46;23.20;;;16.73;;
57217;SDS011;43078;52.972;6.482;2023-04-29T03:34:12;23.17;;;16.55;;
57217;SDS011;43078;52.972;6.482;2023-04-29T03:36:39;25.27;;;17.00;;
57217;SDS011;43078;52.972;6.482;2023-04-29T03:39:04;26.23;;;16.45;;
57217;SDS011;43078;52.972;6.482;2023-04-29T03:41:30;22.63;;;16.50;;
57217;SDS011;43078;52.972;6.482;2023-04-29T03:43:56;28.65;;;18.50;;
57217;SDS011;43078;52.972;6.482;2023-04-29T03:46:25;31.65;;;18.60;;
57217;SDS011;43078;52.972;6.482;2023-04-29T03:48:51;21.52;;;16.77;;
57217;SDS011;43078;52.972;6.482;2023-04-29T03:51:20;24.80;;;16.80;;
57217;SDS011;43078;52.972;6.482;2023-04-29T03:53:48;24.58;;;17.15;;
57217;SDS011;43078;52.972;6.482;2023-04-29T03:56:14;24.20;;;16.63;;
57217;SDS011;43078;52.972;6.482;2023-04-29T03:58:40;29.70;;;18.10;;
57217;SDS011;43078;52.972;6.482;2023-04-29T04:01:06;28.38;;;18.05;;
57217;SDS011;43078;52.972;6.482;2023-04-29T04:03:31;23.45;;;16.17;;
57217;SDS011;43078;52.972;6.482;2023-04-29T04:05:57;22.88;;;16.90;;
57217;SDS011;43078;52.972;6.482;2023-04-29T04:08:23;30.65;;;18.05;;
57217;SDS011;43078;52.972;6.482;2023-04-29T04:10:48;26.95;;;16.67;;
57217;SDS011;43078;52.972;6.482;2023-04-29T04:13:14;24.15;;;16.05;;
57217;SDS011;43078;52.972;6.482;2023-04-29T04:15:40;24.80;;;16.88;;
57217;SDS011;43078;52.972;6.482;2023-04-29T04:18:06;21.50;;;15.70;;
57217;SDS011;43078;52.972;6.482;2023-04-29T04:20:32;25.10;;;16.00;;
57217;SDS011;43078;52.972;6.482;2023-04-29T04:23:01;28.05;;;16.48;;
57217;SDS011;43078;52.972;6.482;2023-04-29T04:25:26;24.67;;;16.00;;
57217;SDS011;43078;52.972;6.482;2023-04-29T04:27:53;23.25;;;15.52;;
57217;SDS011;43078;52.972;6.482;2023-04-29T04:30:19;26.50;;;15.95;;
57217;SDS011;43078;52.972;6.482;2023-04-29T04:32:44;23.08;;;15.65;;
57217;SDS011;43078;52.972;6.482;2023-04-29T04:35:10;24.90;;;16.60;;
57217;SDS011;43078;52.972;6.482;2023-04-29T04:37:37;21.50;;;14.77;;
57217;SDS011;43078;52.972;6.482;2023-04-29T04:40:02;24.65;;;15.05;;
57217;SDS011;43078;52.972;6.482;2023-04-29T04:42:28;24.13;;;15.20;;
57217;SDS011;43078;52.972;6.482;2023-04-29T04:44:54;20.50;;;14.82;;
57217;SDS011;43078;52.972;6.482;2023-04-29T04:47:21;24.02;;;14.68;;
57217;SDS011;43078;52.972;6.482;2023-04-29T04:49:47;22.77;;;14.80;;
57217;SDS011;43078;52.972;6.482;2023-04-29T04:52:13;20.58;;;14.30;;
57217;SDS011;43078;52.972;6.482;2023-04-29T04:54:39;22.77;;;14.18;;
57217;SDS011;43078;52.972;6.482;2023-04-29T04:57:05;22.95;;;14.50;;
57217;SDS011;43078;52.972;6.482;2023-04-29T04:59:30;23.48;;;14.23;;
57217;SDS011;43078;52.972;6.482;2023-04-29T05:01:57;27.90;;;15.57;;
57217;SDS011;43078;52.972;6.482;2023-04-29T05:04:23;25.30;;;15.40;;
57217;SDS011;43078;52.972;6.482;2023-04-29T05:06:48;24.63;;;15.23;;
57217;SDS011;43078;52.972;6.482;2023-04-29T05:09:15;23.92;;;14.48;;
57217;SDS011;43078;52.972;6.482;2023-04-29T05:11:40;26.83;;;16.23;;
57217;SDS011;43078;52.972;6.482;2023-04-29T05:14:06;24.52;;;14.95;;
57217;SDS011;43078;52.972;6.482;2023-04-29T05:16:31;29.67;;;15.43;;
57217;SDS011;43078;52.972;6.482;2023-04-29T05:18:57;22.75;;;13.68;;
57217;SDS011;43078;52.972;6.482;2023-04-29T05:21:23;24.35;;;13.90;;
57217;SDS011;43078;52.972;6.482;2023-04-29T05:23:48;23.15;;;14.02;;
57217;SDS011;43078;52.972;6.482;2023-04-29T05:26:14;22.23;;;13.90;;
57217;SDS011;43078;52.972;6.482;2023-04-29T05:28:39;25.98;;;14.10;;
57217;SDS011;43078;52.972;6.482;2023-04-29T05:31:05;21.95;;;12.57;;
57217;SDS011;43078;52.972;6.482;2023-04-29T05:33:31;23.55;;;12.73;;
57217;SDS011;43078;52.972;6.482;2023-04-29T05:35:57;22.98;;;13.57;;
57217;SDS011;43078;52.972;6.482;2023-04-29T05:38:22;20.85;;;12.63;;
57217;SDS011;43078;52.972;6.482;2023-04-29T05:40:53;19.35;;;12.73;;
57217;SDS011;43078;52.972;6.482;2023-04-29T05:43:22;19.88;;;12.20;;
57217;SDS011;43078;52.972;6.482;2023-04-29T05:45:48;20.10;;;12.32;;
57217;SDS011;43078;52.972;6.482;2023-04-29T05:48:13;20.00;;;12.40;;
57217;SDS011;43078;52.972;6.482;2023-04-29T05:50:39;19.25;;;12.50;;
57217;SDS011;43078;52.972;6.482;2023-04-29T05:53:05;21.10;;;12.40;;
57217;SDS011;43078;52.972;6.482;2023-04-29T05:55:31;18.95;;;10.98;;
57217;SDS011;43078;52.972;6.482;2023-04-29T05:57:57;19.60;;;11.10;;
57217;SDS011;43078;52.972;6.482;2023-04-29T06:00:22;21.55;;;11.02;;
57217;SDS011;43078;52.972;6.482;2023-04-29T06:02:48;19.65;;;10.77;;
57217;SDS011;43078;52.972;6.482;2023-04-29T06:05:14;18.48;;;10.85;;
57217;SDS011;43078;52.972;6.482;2023-04-29T06:07:40;18.77;;;11.55;;
57217;SDS011;43078;52.972;6.482;2023-04-29T06:10:06;16.67;;;10.73;;
57217;SDS011;43078;52.972;6.482;2023-04-29T06:12:33;19.65;;;10.75;;
57217;SDS011;43078;52.972;6.482;2023-04-29T06:14:58;22.77;;;11.05;;
57217;SDS011;43078;52.972;6.482;2023-04-29T06:17:24;19.88;;;11.55;;
57217;SDS011;43078;52.972;6.482;2023-04-29T06:19:53;17.30;;;10.80;;
57217;SDS011;43078;52.972;6.482;2023-04-29T06:22:19;17.80;;;10.77;;
57217;SDS011;43078;52.972;6.482;2023-04-29T06:24:45;19.60;;;10.90;;
57217;SDS011;43078;52.972;6.482;2023-04-29T06:27:11;16.80;;;10.48;;
57217;SDS011;43078;52.972;6.482;2023-04-29T06:29:37;14.75;;;10.13;;
57217;SDS011;43078;52.972;6.482;2023-04-29T06:32:02;16.63;;;10.65;;
57217;SDS011;43078;52.972;6.482;2023-04-29T06:34:28;19.38;;;10.95;;
57217;SDS011;43078;52.972;6.482;2023-04-29T06:36:54;22.13;;;10.85;;
57217;SDS011;43078;52.972;6.482;2023-04-29T06:39:20;18.38;;;11.32;;
57217;SDS011;43078;52.972;6.482;2023-04-29T06:41:45;16.77;;;9.63;;
57217;SDS011;43078;52.972;6.482;2023-04-29T06:44:11;13.88;;;10.35;;
57217;SDS011;43078;52.972;6.482;2023-04-29T06:46:37;20.00;;;10.57;;
57217;SDS011;43078;52.972;6.482;2023-04-29T06:49:03;19.17;;;10.95;;
57217;SDS011;43078;52.972;6.482;2023-04-29T06:51:28;17.83;;;11.00;;
57217;SDS011;43078;52.972;6.482;2023-04-29T06:53:56;16.60;;;10.50;;
57217;SDS011;43078;52.972;6.482;2023-04-29T06:56:21;19.80;;;10.65;;
57217;SDS011;43078;52.972;6.482;2023-04-29T06:58:47;17.00;;;10.80;;
57217;SDS011;43078;52.972;6.482;2023-04-29T07:01:13;16.52;;;10.32;;
57217;SDS011;43078;52.972;6.482;2023-04-29T07:03:39;18.10;;;10.70;;
57217;SDS011;43078;52.972;6.482;2023-04-29T07:06:04;19.63;;;10.50;;
57217;SDS011;43078;52.972;6.482;2023-04-29T07:08:30;16.38;;;10.50;;
57217;SDS011;43078;52.972;6.482;2023-04-29T07:10:56;16.40;;;9.85;;
57217;SDS011;43078;52.972;6.482;2023-04-29T07:13:23;17.05;;;9.70;;
57217;SDS011;43078;52.972;6.482;2023-04-29T07:15:49;19.27;;;9.75;;
57217;SDS011;43078;52.972;6.482;2023-04-29T07:18:14;15.38;;;10.38;;
57217;SDS011;43078;52.972;6.482;2023-04-29T07:20:40;15.70;;;10.23;;
57217;SDS011;43078;52.972;6.482;2023-04-29T07:23:06;16.50;;;10.57;;
57217;SDS011;43078;52.972;6.482;2023-04-29T07:25:31;15.38;;;9.98;;
57217;SDS011;43078;52.972;6.482;2023-04-29T07:27:58;15.60;;;10.20;;
57217;SDS011;43078;52.972;6.482;2023-04-29T07:30:23;17.52;;;10.55;;
57217;SDS011;43078;52.972;6.482;2023-04-29T07:32:49;17.38;;;10.55;;
57217;SDS011;43078;52.972;6.482;2023-04-29T07:35:14;14.50;;;9.30;;
57217;SDS011;43078;52.972;6.482;2023-04-29T07:37:40;15.75;;;9.93;;
57217;SDS011;43078;52.972;6.482;2023-04-29T07:40:07;15.25;;;9.95;;
57217;SDS011;43078;52.972;6.482;2023-04-29T07:42:33;15.80;;;9.70;;
57217;SDS011;43078;52.972;6.482;2023-04-29T07:44:59;17.05;;;9.60;;
57217;SDS011;43078;52.972;6.482;2023-04-29T07:47:25;16.50;;;9.48;;
57217;SDS011;43078;52.972;6.482;2023-04-29T07:49:51;15.65;;;9.88;;
57217;SDS011;43078;52.972;6.482;2023-04-29T07:52:17;13.90;;;8.90;;
57217;SDS011;43078;52.972;6.482;2023-04-29T07:54:42;15.60;;;9.55;;
57217;SDS011;43078;52.972;6.482;2023-04-29T07:57:08;14.18;;;9.43;;
57217;SDS011;43078;52.972;6.482;2023-04-29T07:59:33;14.98;;;9.38;;
57217;SDS011;43078;52.972;6.482;2023-04-29T08:01:59;16.67;;;9.38;;
57217;SDS011;43078;52.972;6.482;2023-04-29T08:04:25;16.40;;;9.27;;
57217;SDS011;43078;52.972;6.482;2023-04-29T08:06:51;17.38;;;9.10;;
57217;SDS011;43078;52.972;6.482;2023-04-29T08:09:17;14.68;;;8.77;;
57217;SDS011;43078;52.972;6.482;2023-04-29T08:11:42;15.15;;;9.27;;
57217;SDS011;43078;52.972;6.482;2023-04-29T08:14:08;14.30;;;8.45;;
57217;SDS011;43078;52.972;6.482;2023-04-29T08:16:34;14.63;;;8.35;;
57217;SDS011;43078;52.972;6.482;2023-04-29T08:19:00;12.70;;;8.40;;
57217;SDS011;43078;52.972;6.482;2023-04-29T08:21:25;12.50;;;8.57;;
57217;SDS011;43078;52.972;6.482;2023-04-29T08:23:51;16.25;;;8.48;;
57217;SDS011;43078;52.972;6.482;2023-04-29T08:26:17;14.73;;;8.63;;
57217;SDS011;43078;52.972;6.482;2023-04-29T08:28:43;11.63;;;8.68;;
57217;SDS011;43078;52.972;6.482;2023-04-29T08:31:19;15.30;;;8.27;;
57217;SDS011;43078;52.972;6.482;2023-04-29T08:33:45;14.40;;;8.25;;
57217;SDS011;43078;52.972;6.482;2023-04-29T08:36:11;13.07;;;6.97;;
57217;SDS011;43078;52.972;6.482;2023-04-29T08:38:37;13.68;;;7.82;;
57217;SDS011;43078;52.972;6.482;2023-04-29T08:41:03;10.95;;;6.60;;
57217;SDS011;43078;52.972;6.482;2023-04-29T08:43:29;13.13;;;7.25;;
57217;SDS011;43078;52.972;6.482;2023-04-29T08:45:56;12.25;;;8.02;;
57217;SDS011;43078;52.972;6.482;2023-04-29T08:48:23;12.50;;;7.30;;
57217;SDS011;43078;52.972;6.482;2023-04-29T08:50:50;12.55;;;6.40;;
57217;SDS011;43078;52.972;6.482;2023-04-29T08:53:16;12.15;;;7.22;;
57217;SDS011;43078;52.972;6.482;2023-04-29T08:58:08;14.32;;;7.50;;
57217;SDS011;43078;52.972;6.482;2023-04-29T09:00:34;13.07;;;7.00;;
57217;SDS011;43078;52.972;6.482;2023-04-29T09:03:11;12.70;;;7.13;;
57217;SDS011;43078;52.972;6.482;2023-04-29T09:05:37;11.65;;;6.82;;
57217;SDS011;43078;52.972;6.482;2023-04-29T09:08:05;11.18;;;7.25;;
57217;SDS011;43078;52.972;6.482;2023-04-29T09:10:32;13.50;;;6.72;;
57217;SDS011;43078;52.972;6.482;2023-04-29T09:13:00;12.35;;;7.05;;
57217;SDS011;43078;52.972;6.482;2023-04-29T09:15:25;13.05;;;7.05;;
57217;SDS011;43078;52.972;6.482;2023-04-29T09:17:51;13.38;;;7.10;;
57217;SDS011;43078;52.972;6.482;2023-04-29T09:22:46;12.27;;;6.50;;
57217;SDS011;43078;52.972;6.482;2023-04-29T09:25:13;11.27;;;7.07;;
57217;SDS011;43078;52.972;6.482;2023-04-29T09:27:39;12.05;;;6.38;;
57217;SDS011;43078;52.972;6.482;2023-04-29T09:30:05;14.88;;;6.25;;
57217;SDS011;43078;52.972;6.482;2023-04-29T09:32:31;11.98;;;7.05;;
57217;SDS011;43078;52.972;6.482;2023-04-29T09:34:57;10.75;;;6.20;;
57217;SDS011;43078;52.972;6.482;2023-04-29T09:37:23;10.50;;;6.07;;
57217;SDS011;43078;52.972;6.482;2023-04-29T09:39:51;13.35;;;6.82;;
57217;SDS011;43078;52.972;6.482;2023-04-29T09:42:17;14.10;;;6.35;;
57217;SDS011;43078;52.972;6.482;2023-04-29T09:44:43;12.43;;;6.93;;
57217;SDS011;43078;52.972;6.482;2023-04-29T09:47:09;12.27;;;6.82;;
57217;SDS011;43078;52.972;6.482;2023-04-29T09:49:39;11.18;;;6.30;;
57217;SDS011;43078;52.972;6.482;2023-04-29T09:52:07;12.32;;;6.45;;
57217;SDS011;43078;52.972;6.482;2023-04-29T09:54:36;13.00;;;6.90;;
57217;SDS011;43078;52.972;6.482;2023-04-29T09:57:03;10.35;;;6.65;;
57217;SDS011;43078;52.972;6.482;2023-04-29T09:59:30;12.45;;;7.13;;
57217;SDS011;43078;52.972;6.482;2023-04-29T10:01:58;13.77;;;7.20;;
57217;SDS011;43078;52.972;6.482;2023-04-29T10:04:25;10.45;;;6.80;;
57217;SDS011;43078;52.972;6.482;2023-04-29T10:06:52;9.25;;;6.25;;
57217;SDS011;43078;52.972;6.482;2023-04-29T10:09:20;11.93;;;6.22;;
57217;SDS011;43078;52.972;6.482;2023-04-29T10:11:48;8.50;;;5.45;;
57217;SDS011;43078;52.972;6.482;2023-04-29T10:14:19;11.25;;;6.78;;
57217;SDS011;43078;52.972;6.482;2023-04-29T10:17:07;12.03;;;6.07;;
57217;SDS011;43078;52.972;6.482;2023-04-29T10:19:46;9.38;;;5.82;;
57217;SDS011;43078;52.972;6.482;2023-04-29T10:22:20;9.82;;;5.85;;
57217;SDS011;43078;52.972;6.482;2023-04-29T10:24:53;11.73;;;5.20;;
57217;SDS011;43078;52.972;6.482;2023-04-29T10:27:21;10.57;;;5.43;;
57217;SDS011;43078;52.972;6.482;2023-04-29T10:29:49;9.98;;;5.43;;
57217;SDS011;43078;52.972;6.482;2023-04-29T10:32:17;11.32;;;6.28;;
57217;SDS011;43078;52.972;6.482;2023-04-29T10:34:45;9.10;;;5.15;;
57217;SDS011;43078;52.972;6.482;2023-04-29T10:37:16;9.73;;;5.03;;
57217;SDS011;43078;52.972;6.482;2023-04-29T10:39:52;10.20;;;5.85;;
57217;SDS011;43078;52.972;6.482;2023-04-29T10:42:42;10.60;;;5.82;;
57217;SDS011;43078;52.972;6.482;2023-04-29T10:45:27;9.68;;;5.85;;
57217;SDS011;43078;52.972;6.482;2023-04-29T10:50:30;9.07;;;6.20;;
57217;SDS011;43078;52.972;6.482;2023-04-29T10:53:00;10.32;;;5.50;;
57217;SDS011;43078;52.972;6.482;2023-04-29T10:55:27;11.32;;;5.13;;
57217;SDS011;43078;52.972;6.482;2023-04-29T10:57:53;9.77;;;5.38;;
57217;SDS011;43078;52.972;6.482;2023-04-29T11:00:30;9.10;;;5.10;;
57217;SDS011;43078;52.972;6.482;2023-04-29T11:02:58;8.35;;;5.40;;
57217;SDS011;43078;52.972;6.482;2023-04-29T11:05:32;9.95;;;5.00;;
57217;SDS011;43078;52.972;6.482;2023-04-29T11:08:12;7.95;;;4.97;;
57217;SDS011;43078;52.972;6.482;2023-04-29T11:10:47;8.05;;;4.85;;
57217;SDS011;43078;52.972;6.482;2023-04-29T11:13:19;10.35;;;5.10;;
57217;SDS011;43078;52.972;6.482;2023-04-29T11:15:46;9.50;;;4.43;;
57217;SDS011;43078;52.972;6.482;2023-04-29T11:18:12;7.57;;;5.13;;
57217;SDS011;43078;52.972;6.482;2023-04-29T11:25:59;7.22;;;4.45;;
57217;SDS011;43078;52.972;6.482;2023-04-29T11:28:31;8.55;;;5.10;;
57217;SDS011;43078;52.972;6.482;2023-04-29T11:30:57;8.65;;;4.63;;
57217;SDS011;43078;52.972;6.482;2023-04-29T11:33:24;10.93;;;4.35;;
57217;SDS011;43078;52.972;6.482;2023-04-29T11:35:53;11.73;;;4.70;;
57217;SDS011;43078;52.972;6.482;2023-04-29T11:38:25;9.05;;;4.50;;
57217;SDS011;43078;52.972;6.482;2023-04-29T11:40:53;11.10;;;4.75;;
57217;SDS011;43078;52.972;6.482;2023-04-29T11:43:20;11.18;;;5.18;;
57217;SDS011;43078;52.972;6.482;2023-04-29T11:45:47;10.40;;;4.93;;
57217;SDS011;43078;52.972;6.482;2023-04-29T11:48:20;10.85;;;4.78;;
57217;SDS011;43078;52.972;6.482;2023-04-29T11:50:48;7.45;;;4.55;;
57217;SDS011;43078;52.972;6.482;2023-04-29T11:53:16;9.77;;;5.30;;
57217;SDS011;43078;52.972;6.482;2023-04-29T11:55:44;9.07;;;4.53;;
57217;SDS011;43078;52.972;6.482;2023-04-29T11:58:10;7.70;;;4.47;;
57217;SDS011;43078;52.972;6.482;2023-04-29T12:00:36;9.38;;;3.60;;
57217;SDS011;43078;52.972;6.482;2023-04-29T12:03:15;9.35;;;3.83;;
57217;SDS011;43078;52.972;6.482;2023-04-29T12:08:20;6.45;;;2.80;;
57217;SDS011;43078;52.972;6.482;2023-04-29T12:10:50;5.82;;;2.45;;
57217;SDS011;43078;52.972;6.482;2023-04-29T12:13:20;8.15;;;2.78;;
57217;SDS011;43078;52.972;6.482;2023-04-29T12:15:48;8.20;;;3.35;;
57217;SDS011;43078;52.972;6.482;2023-04-29T12:18:18;9.27;;;2.75;;
57217;SDS011;43078;52.972;6.482;2023-04-29T12:20:46;8.23;;;2.90;;
57217;SDS011;43078;52.972;6.482;2023-04-29T12:23:13;8.65;;;3.20;;
57217;SDS011;43078;52.972;6.482;2023-04-29T12:25:44;7.70;;;3.20;;
57217;SDS011;43078;52.972;6.482;2023-04-29T12:28:16;5.82;;;3.03;;
57217;SDS011;43078;52.972;6.482;2023-04-29T12:30:43;7.00;;;2.72;;
57217;SDS011;43078;52.972;6.482;2023-04-29T12:33:09;7.20;;;2.70;;
57217;SDS011;43078;52.972;6.482;2023-04-29T12:35:39;7.15;;;2.70;;
57217;SDS011;43078;52.972;6.482;2023-04-29T12:38:05;5.07;;;2.17;;
57217;SDS011;43078;52.972;6.482;2023-04-29T12:40:31;7.45;;;2.17;;
57217;SDS011;43078;52.972;6.482;2023-04-29T12:43:05;5.65;;;2.22;;
57217;SDS011;43078;52.972;6.482;2023-04-29T12:45:31;5.38;;;2.45;;
57217;SDS011;43078;52.972;6.482;2023-04-29T12:47:58;7.80;;;2.90;;
57217;SDS011;43078;52.972;6.482;2023-04-29T12:50:28;6.13;;;2.67;;
57217;SDS011;43078;52.972;6.482;2023-04-29T12:52:54;8.02;;;3.03;;
57217;SDS011;43078;52.972;6.482;2023-04-29T12:55:20;7.68;;;3.10;;
57217;SDS011;43078;52.972;6.482;2023-04-29T12:57:46;7.90;;;3.00;;
57217;SDS011;43078;52.972;6.482;2023-04-29T13:00:11;7.78;;;3.08;;
57217;SDS011;43078;52.972;6.482;2023-04-29T13:02:38;7.32;;;3.17;;
57217;SDS011;43078;52.972;6.482;2023-04-29T13:05:04;6.20;;;3.08;;
57217;SDS011;43078;52.972;6.482;2023-04-29T13:07:29;8.23;;;3.20;;
57217;SDS011;43078;52.972;6.482;2023-04-29T13:09:55;7.10;;;2.95;;
57217;SDS011;43078;52.972;6.482;2023-04-29T13:12:20;7.88;;;2.53;;
57217;SDS011;43078;52.972;6.482;2023-04-29T13:14:46;6.95;;;2.08;;
57217;SDS011;43078;52.972;6.482;2023-04-29T13:17:11;5.95;;;2.20;;
57217;SDS011;43078;52.972;6.482;2023-04-29T13:19:37;5.15;;;2.03;;
57217;SDS011;43078;52.972;6.482;2023-04-29T13:22:03;6.13;;;2.22;;
57217;SDS011;43078;52.972;6.482;2023-04-29T13:24:29;4.53;;;2.00;;
57217;SDS011;43078;52.972;6.482;2023-04-29T13:26:55;5.65;;;2.55;;
57217;SDS011;43078;52.972;6.482;2023-04-29T13:29:20;6.80;;;2.85;;
57217;SDS011;43078;52.972;6.482;2023-04-29T13:31:46;8.23;;;2.92;;
57217;SDS011;43078;52.972;6.482;2023-04-29T13:34:12;4.80;;;1.60;;
57217;SDS011;43078;52.972;6.482;2023-04-29T13:36:37;6.03;;;2.22;;
57217;SDS011;43078;52.972;6.482;2023-04-29T13:39:03;4.03;;;1.27;;
57217;SDS011;43078;52.972;6.482;2023-04-29T13:41:28;3.83;;;1.17;;
57217;SDS011;43078;52.972;6.482;2023-04-29T13:43:54;6.78;;;1.67;;
57217;SDS011;43078;52.972;6.482;2023-04-29T13:46:20;4.72;;;1.20;;
57217;SDS011;43078;52.972;6.482;2023-04-29T13:48:45;5.60;;;1.83;;
57217;SDS011;43078;52.972;6.482;2023-04-29T13:51:11;3.83;;;1.50;;
57217;SDS011;43078;52.972;6.482;2023-04-29T13:53:37;6.82;;;1.42;;
57217;SDS011;43078;52.972;6.482;2023-04-29T13:56:02;3.30;;;1.33;;
57217;SDS011;43078;52.972;6.482;2023-04-29T13:58:28;6.50;;;1.60;;
57217;SDS011;43078;52.972;6.482;2023-04-29T14:00:53;4.10;;;1.65;;
57217;SDS011;43078;52.972;6.482;2023-04-29T14:03:19;5.82;;;1.80;;
57217;SDS011;43078;52.972;6.482;2023-04-29T14:05:45;3.97;;;1.60;;
57217;SDS011;43078;52.972;6.482;2023-04-29T14:08:10;4.68;;;1.70;;
57217;SDS011;43078;52.972;6.482;2023-04-29T14:10:36;3.78;;;1.60;;
57217;SDS011;43078;52.972;6.482;2023-04-29T14:13:02;5.57;;;1.70;;
57217;SDS011;43078;52.972;6.482;2023-04-29T14:15:28;6.47;;;1.67;;
57217;SDS011;43078;52.972;6.482;2023-04-29T14:17:53;5.63;;;1.70;;
57217;SDS011;43078;52.972;6.482;2023-04-29T14:20:19;5.88;;;2.00;;
57217;SDS011;43078;52.972;6.482;2023-04-29T14:22:44;3.40;;;1.58;;
57217;SDS011;43078;52.972;6.482;2023-04-29T14:25:10;4.35;;;1.77;;
57217;SDS011;43078;52.972;6.482;2023-04-29T14:27:38;6.47;;;2.20;;
57217;SDS011;43078;52.972;6.482;2023-04-29T14:30:04;5.07;;;2.40;;
57217;SDS011;43078;52.972;6.482;2023-04-29T14:32:30;5.88;;;2.63;;
57217;SDS011;43078;52.972;6.482;2023-04-29T14:34:56;6.78;;;3.10;;
57217;SDS011;43078;52.972;6.482;2023-04-29T14:37:22;8.50;;;3.35;;
57217;SDS011;43078;52.972;6.482;2023-04-29T14:39:51;5.63;;;2.60;;
57217;SDS011;43078;52.972;6.482;2023-04-29T14:42:19;7.30;;;3.60;;
57217;SDS011;43078;52.972;6.482;2023-04-29T14:44:45;8.90;;;4.15;;
57217;SDS011;43078;52.972;6.482;2023-04-29T14:47:11;5.78;;;3.42;;
57217;SDS011;43078;52.972;6.482;2023-04-29T14:49:36;8.80;;;4.07;;
57217;SDS011;43078;52.972;6.482;2023-04-29T14:52:08;7.38;;;3.70;;